sensor_id;sensor_type;location;lat;lon;timestamp;temperature;humidity
7700;DHT22;3892;47.794;19.126;2023-04-03T04:55:07;14.00;29.40
7700;DHT22;3892;47.794;19.126;2023-04-03T04:57:34;14.00;29.80
7700;DHT22;3892;47.794;19.126;2023-04-03T05:00:07;13.90;29.70
7700;DHT22;3892;47.794;19.126;2023-04-03T05:02:34;13.80;29.80
7700;DHT22;3892;47.794;19.126;2023-04-03T05:05:01;13.80;29.90
7700;DHT22;3892;47.794;19.126;2023-04-03T05:07:29;13.70;30.00
7700;DHT22;3892;47.794;19.126;2023-04-03T05:09:58;13.70;33.30
7700;DHT22;3892;47.794;19.126;2023-04-03T05:12:26;13.70;30.80
7700;DHT22;3892;47.794;19.126;2023-04-03T05:14:57;13.20;29.70
7700;DHT22;3892;47.794;19.126;2023-04-03T05:17:27;13.50;29.90
7700;DHT22;3892;47.794;19.126;2023-04-03T05:19:56;13.50;30.00
7700;DHT22;3892;47.794;19.126;2023-04-03T05:22:25;13.40;30.00
7700;DHT22;3892;47.794;19.126;2023-04-03T05:24:56;13.30;30.10
7700;DHT22;3892;47.794;19.126;2023-04-03T05:27:23;13.10;30.20
7700;DHT22;3892;47.794;19.126;2023-04-03T05:29:53;13.20;30.50
7700;DHT22;3892;47.794;19.126;2023-04-03T05:32:22;13.10;30.80
7700;DHT22;3892;47.794;19.126;2023-04-03T05:34:56;13.20;31.10
7700;DHT22;3892;47.794;19.126;2023-04-03T05:37:23;13.20;31.20
7700;DHT22;3892;47.794;19.126;2023-04-03T05:39:52;13.30;31.00
7700;DHT22;3892;47.794;19.126;2023-04-03T05:42:19;13.30;31.10
7700;DHT22;3892;47.794;19.126;2023-04-03T05:44:46;13.40;31.20
7700;DHT22;3892;47.794;19.126;2023-04-03T05:47:14;13.40;31.20
7700;DHT22;3892;47.794;19.126;2023-04-03T05:49:41;13.40;31.10
7700;DHT22;3892;47.794;19.126;2023-04-03T05:52:19;13.50;30.90
7700;DHT22;3892;47.794;19.126;2023-04-03T05:54:47;13.40;30.70
7700;DHT22;3892;47.794;19.126;2023-04-03T05:57:19;13.40;30.60
7700;DHT22;3892;47.794;19.126;2023-04-03T05:59:47;13.50;30.80
7700;DHT22;3892;47.794;19.126;2023-04-03T06:02:16;13.50;30.60
7700;DHT22;3892;47.794;19.126;2023-04-03T06:04:46;13.20;30.30
7700;DHT22;3892;47.794;19.126;2023-04-03T06:07:16;13.20;30.50
7700;DHT22;3892;47.794;19.126;2023-04-03T06:09:45;13.10;30.50
7700;DHT22;3892;47.794;19.126;2023-04-03T06:12:12;13.20;30.80
7700;DHT22;3892;47.794;19.126;2023-04-03T06:14:39;13.10;30.70
7700;DHT22;3892;47.794;19.126;2023-04-03T06:17:07;13.20;30.90
7700;DHT22;3892;47.794;19.126;2023-04-03T06:19:35;13.30;30.80
7700;DHT22;3892;47.794;19.126;2023-04-03T06:22:02;13.40;30.70
7700;DHT22;3892;47.794;19.126;2023-04-03T06:24:31;13.60;30.40
7700;DHT22;3892;47.794;19.126;2023-04-03T06:26:58;13.80;30.40
7700;DHT22;3892;47.794;19.126;2023-04-03T06:29:26;13.90;29.80
7700;DHT22;3892;47.794;19.126;2023-04-03T06:31:53;14.00;29.90
7700;DHT22;3892;47.794;19.126;2023-04-03T06:34:20;14.10;29.50
7700;DHT22;3892;47.794;19.126;2023-04-03T06:36:47;14.20;29.50
7700;DHT22;3892;47.794;19.126;2023-04-03T06:39:15;14.20;28.90
7700;DHT22;3892;47.794;19.126;2023-04-03T06:41:44;14.20;29.00
7700;DHT22;3892;47.794;19.126;2023-04-03T06:44:11;14.30;29.10
7700;DHT22;3892;47.794;19.126;2023-04-03T06:46:42;14.30;28.60
7700;DHT22;3892;47.794;19.126;2023-04-03T06:49:09;14.40;28.60
7700;DHT22;3892;47.794;19.126;2023-04-03T06:51:36;14.50;28.40
7700;DHT22;3892;47.794;19.126;2023-04-03T06:54:05;14.60;28.30
7700;DHT22;3892;47.794;19.126;2023-04-03T06:56:33;14.60;28.50
7700;DHT22;3892;47.794;19.126;2023-04-03T06:59:01;14.70;28.60
7700;DHT22;3892;47.794;19.126;2023-04-03T07:01:29;14.80;28.50
7700;DHT22;3892;47.794;19.126;2023-04-03T07:03:58;14.80;28.30
7700;DHT22;3892;47.794;19.126;2023-04-03T07:06:25;15.80;28.80
7700;DHT22;3892;47.794;19.126;2023-04-03T07:08:53;14.90;28.40
7700;DHT22;3892;47.794;19.126;2023-04-03T07:11:20;14.90;28.30
7700;DHT22;3892;47.794;19.126;2023-04-03T07:13:48;14.90;28.60
7700;DHT22;3892;47.794;19.126;2023-04-03T07:16:16;15.00;28.50
7700;DHT22;3892;47.794;19.126;2023-04-03T07:18:43;15.10;28.10
7700;DHT22;3892;47.794;19.126;2023-04-03T07:21:10;15.20;28.50
7700;DHT22;3892;47.794;19.126;2023-04-03T07:23:38;15.20;28.30
7700;DHT22;3892;47.794;19.126;2023-04-03T07:26:05;15.30;28.10
7700;DHT22;3892;47.794;19.126;2023-04-03T07:28:33;15.30;27.80
7700;DHT22;3892;47.794;19.126;2023-04-03T07:31:03;15.40;28.20
7700;DHT22;3892;47.794;19.126;2023-04-03T07:33:33;15.40;28.00
7700;DHT22;3892;47.794;19.126;2023-04-03T07:36:01;15.40;27.70
7700;DHT22;3892;47.794;19.126;2023-04-03T07:38:28;15.30;27.90
7700;DHT22;3892;47.794;19.126;2023-04-03T07:40:55;15.40;28.20
7700;DHT22;3892;47.794;19.126;2023-04-03T07:43:22;15.40;27.90
7700;DHT22;3892;47.794;19.126;2023-04-03T07:45:50;15.50;28.00
7700;DHT22;3892;47.794;19.126;2023-04-03T07:48:18;15.50;27.90
7700;DHT22;3892;47.794;19.126;2023-04-03T07:50:46;15.40;28.10
7700;DHT22;3892;47.794;19.126;2023-04-03T07:53:14;15.40;28.30
7700;DHT22;3892;47.794;19.126;2023-04-03T07:55:41;15.50;27.60
7700;DHT22;3892;47.794;19.126;2023-04-03T07:58:09;15.50;27.40
7700;DHT22;3892;47.794;19.126;2023-04-03T08:00:37;15.50;27.50
7700;DHT22;3892;47.794;19.126;2023-04-03T08:03:05;15.60;28.20
7700;DHT22;3892;47.794;19.126;2023-04-03T08:05:36;15.60;28.20
7700;DHT22;3892;47.794;19.126;2023-04-03T08:08:05;15.70;28.10
7700;DHT22;3892;47.794;19.126;2023-04-03T08:10:33;15.80;27.60
7700;DHT22;3892;47.794;19.126;2023-04-03T08:13:00;15.80;27.20
7700;DHT22;3892;47.794;19.126;2023-04-03T08:15:27;15.80;27.30
7700;DHT22;3892;47.794;19.126;2023-04-03T08:17:54;15.80;27.80
7700;DHT22;3892;47.794;19.126;2023-04-03T08:20:22;15.90;27.60
7700;DHT22;3892;47.794;19.126;2023-04-03T08:22:49;16.00;27.50
7700;DHT22;3892;47.794;19.126;2023-04-03T08:25:17;16.10;27.40
7700;DHT22;3892;47.794;19.126;2023-04-03T08:27:44;16.20;27.50
7700;DHT22;3892;47.794;19.126;2023-04-03T08:30:12;16.20;27.20
7700;DHT22;3892;47.794;19.126;2023-04-03T08:32:39;16.30;27.40
7700;DHT22;3892;47.794;19.126;2023-04-03T08:35:08;16.30;27.50
7700;DHT22;3892;47.794;19.126;2023-04-03T08:37:35;16.40;27.90
7700;DHT22;3892;47.794;19.126;2023-04-03T08:40:03;16.50;27.90
7700;DHT22;3892;47.794;19.126;2023-04-03T08:42:41;16.50;27.90
7700;DHT22;3892;47.794;19.126;2023-04-03T08:45:13;16.60;27.10
7700;DHT22;3892;47.794;19.126;2023-04-03T08:47:45;16.70;26.90
7700;DHT22;3892;47.794;19.126;2023-04-03T08:50:16;16.80;26.60
7700;DHT22;3892;47.794;19.126;2023-04-03T08:52:45;16.70;26.30
7700;DHT22;3892;47.794;19.126;2023-04-03T08:55:21;16.80;26.30
7700;DHT22;3892;47.794;19.126;2023-04-03T08:57:53;16.80;26.40
7700;DHT22;3892;47.794;19.126;2023-04-03T09:00:25;16.80;26.20
7700;DHT22;3892;47.794;19.126;2023-04-03T09:02:55;16.90;26.10
7700;DHT22;3892;47.794;19.126;2023-04-03T09:05:32;16.90;25.90
7700;DHT22;3892;47.794;19.126;2023-04-03T09:08:11;16.90;25.90
7700;DHT22;3892;47.794;19.126;2023-04-03T09:10:40;16.90;25.90
7700;DHT22;3892;47.794;19.126;2023-04-03T09:13:17;17.00;26.10
7700;DHT22;3892;47.794;19.126;2023-04-03T09:15:48;17.00;25.90
7700;DHT22;3892;47.794;19.126;2023-04-03T09:18:19;17.10;26.40
7700;DHT22;3892;47.794;19.126;2023-04-03T09:20:56;17.20;25.90
7700;DHT22;3892;47.794;19.126;2023-04-03T09:23:28;17.20;25.90
7700;DHT22;3892;47.794;19.126;2023-04-03T09:26:01;17.20;25.60
7700;DHT22;3892;47.794;19.126;2023-04-03T09:28:35;17.20;25.90
7700;DHT22;3892;47.794;19.126;2023-04-03T09:31:16;17.20;26.50
7700;DHT22;3892;47.794;19.126;2023-04-03T09:33:45;17.20;26.00
7700;DHT22;3892;47.794;19.126;2023-04-03T09:36:13;17.20;25.70
7700;DHT22;3892;47.794;19.126;2023-04-03T09:38:40;17.30;25.90
7700;DHT22;3892;47.794;19.126;2023-04-03T09:41:16;17.40;26.70
7700;DHT22;3892;47.794;19.126;2023-04-03T09:43:52;17.50;26.20
7700;DHT22;3892;47.794;19.126;2023-04-03T09:46:31;17.40;25.40
7700;DHT22;3892;47.794;19.126;2023-04-03T09:48:59;17.30;25.80
7700;DHT22;3892;47.794;19.126;2023-04-03T09:51:27;17.30;26.30
7700;DHT22;3892;47.794;19.126;2023-04-03T09:53:55;17.30;26.10
7700;DHT22;3892;47.794;19.126;2023-04-03T09:56:24;17.30;26.30
7700;DHT22;3892;47.794;19.126;2023-04-03T09:59:08;17.40;26.20
7700;DHT22;3892;47.794;19.126;2023-04-03T10:01:37;17.50;26.20
7700;DHT22;3892;47.794;19.126;2023-04-03T10:04:10;17.60;26.10
7700;DHT22;3892;47.794;19.126;2023-04-03T10:06:40;17.60;25.80
7700;DHT22;3892;47.794;19.126;2023-04-03T10:09:18;17.70;25.60
7700;DHT22;3892;47.794;19.126;2023-04-03T10:12:03;17.80;25.80
7700;DHT22;3892;47.794;19.126;2023-04-03T10:14:34;17.80;25.80
7700;DHT22;3892;47.794;19.126;2023-04-03T10:17:18;17.80;25.60
7700;DHT22;3892;47.794;19.126;2023-04-03T10:19:52;17.60;24.80
7700;DHT22;3892;47.794;19.126;2023-04-03T10:22:26;17.50;25.20
7700;DHT22;3892;47.794;19.126;2023-04-03T10:25:02;17.60;25.60
7700;DHT22;3892;47.794;19.126;2023-04-03T10:27:42;17.60;25.70
7700;DHT22;3892;47.794;19.126;2023-04-03T10:30:25;17.60;25.70
7700;DHT22;3892;47.794;19.126;2023-04-03T10:33:01;17.70;26.00
7700;DHT22;3892;47.794;19.126;2023-04-03T10:35:40;17.70;26.00
7700;DHT22;3892;47.794;19.126;2023-04-03T10:38:15;17.80;25.50
7700;DHT22;3892;47.794;19.126;2023-04-03T10:40:52;17.80;25.70
7700;DHT22;3892;47.794;19.126;2023-04-03T10:43:28;17.70;25.30
7700;DHT22;3892;47.794;19.126;2023-04-03T10:46:02;17.60;25.20
7700;DHT22;3892;47.794;19.126;2023-04-03T10:51:27;17.70;25.60
7700;DHT22;3892;47.794;19.126;2023-04-03T10:54:00;17.70;25.80
7700;DHT22;3892;47.794;19.126;2023-04-03T10:56:32;17.80;25.70
7700;DHT22;3892;47.794;19.126;2023-04-03T10:59:13;17.80;25.70
7700;DHT22;3892;47.794;19.126;2023-04-03T11:01:46;17.90;25.30
7700;DHT22;3892;47.794;19.126;2023-04-03T11:04:18;17.90;25.60
7700;DHT22;3892;47.794;19.126;2023-04-03T11:06:51;17.90;25.20
7700;DHT22;3892;47.794;19.126;2023-04-03T11:09:25;17.80;25.80
7700;DHT22;3892;47.794;19.126;2023-04-03T11:11:56;17.80;25.90
7700;DHT22;3892;47.794;19.126;2023-04-03T11:14:30;17.70;25.80
7700;DHT22;3892;47.794;19.126;2023-04-03T11:17:06;17.70;26.30
7700;DHT22;3892;47.794;19.126;2023-04-03T11:19:39;17.80;26.20
7700;DHT22;3892;47.794;19.126;2023-04-03T11:22:12;17.80;25.90
7700;DHT22;3892;47.794;19.126;2023-04-03T11:24:47;17.90;25.70
7700;DHT22;3892;47.794;19.126;2023-04-03T11:27:21;18.00;25.60
7700;DHT22;3892;47.794;19.126;2023-04-03T11:29:52;18.00;25.50
7700;DHT22;3892;47.794;19.126;2023-04-03T11:32:37;18.10;25.30
7700;DHT22;3892;47.794;19.126;2023-04-03T11:35:08;18.10;25.50
7700;DHT22;3892;47.794;19.126;2023-04-03T11:37:39;18.10;25.70
7700;DHT22;3892;47.794;19.126;2023-04-03T11:40:16;18.10;25.50
7700;DHT22;3892;47.794;19.126;2023-04-03T11:42:47;18.20;25.60
7700;DHT22;3892;47.794;19.126;2023-04-03T11:45:17;18.20;25.20
7700;DHT22;3892;47.794;19.126;2023-04-03T11:47:51;18.10;25.60
7700;DHT22;3892;47.794;19.126;2023-04-03T11:50:38;18.10;25.50
7700;DHT22;3892;47.794;19.126;2023-04-03T11:53:29;18.10;25.50
7700;DHT22;3892;47.794;19.126;2023-04-03T11:58:39;18.10;25.50
7700;DHT22;3892;47.794;19.126;2023-04-03T12:01:09;18.10;25.10
7700;DHT22;3892;47.794;19.126;2023-04-03T12:10:17;18.10;25.50
7700;DHT22;3892;47.794;19.126;2023-04-03T12:12:58;18.20;25.60
7700;DHT22;3892;47.794;19.126;2023-04-03T12:15:52;18.20;25.10
7700;DHT22;3892;47.794;19.126;2023-04-03T12:18:57;18.20;25.30
7700;DHT22;3892;47.794;19.126;2023-04-03T12:24:33;18.30;25.30
7700;DHT22;3892;47.794;19.126;2023-04-03T12:27:17;18.30;25.80
7700;DHT22;3892;47.794;19.126;2023-04-03T12:29:51;18.30;25.50
7700;DHT22;3892;47.794;19.126;2023-04-03T12:32:29;18.30;25.40
7700;DHT22;3892;47.794;19.126;2023-04-03T12:35:17;18.30;25.40
7700;DHT22;3892;47.794;19.126;2023-04-03T12:38:11;18.30;25.20
7700;DHT22;3892;47.794;19.126;2023-04-03T12:40:48;18.20;25.00
7700;DHT22;3892;47.794;19.126;2023-04-03T12:43:38;18.20;25.20
7700;DHT22;3892;47.794;19.126;2023-04-03T12:46:13;18.30;24.80
7700;DHT22;3892;47.794;19.126;2023-04-03T12:48:48;18.20;24.80
7700;DHT22;3892;47.794;19.126;2023-04-03T12:51:19;18.30;24.90
7700;DHT22;3892;47.794;19.126;2023-04-03T12:53:49;18.20;24.30
7700;DHT22;3892;47.794;19.126;2023-04-03T12:56:23;18.10;24.50
7700;DHT22;3892;47.794;19.126;2023-04-03T12:58:53;18.20;25.20
7700;DHT22;3892;47.794;19.126;2023-04-03T13:01:24;18.10;24.90
7700;DHT22;3892;47.794;19.126;2023-04-03T13:03:54;18.10;24.90
7700;DHT22;3892;47.794;19.126;2023-04-03T13:06:23;18.20;25.70
7700;DHT22;3892;47.794;19.126;2023-04-03T13:08:52;18.40;25.90
7700;DHT22;3892;47.794;19.126;2023-04-03T13:11:20;18.40;25.10
7700;DHT22;3892;47.794;19.126;2023-04-03T13:13:57;18.50;25.50
7700;DHT22;3892;47.794;19.126;2023-04-03T13:16:25;18.60;25.30
7700;DHT22;3892;47.794;19.126;2023-04-03T13:18:53;18.60;25.10
7700;DHT22;3892;47.794;19.126;2023-04-03T13:21:23;18.60;25.20
7700;DHT22;3892;47.794;19.126;2023-04-03T13:26:22;18.70;24.90
7700;DHT22;3892;47.794;19.126;2023-04-03T13:28:52;18.80;25.20
7700;DHT22;3892;47.794;19.126;2023-04-03T13:31:23;18.80;24.70
7700;DHT22;3892;47.794;19.126;2023-04-03T13:33:57;18.70;24.90
7700;DHT22;3892;47.794;19.126;2023-04-03T13:36:28;18.70;24.90
7700;DHT22;3892;47.794;19.126;2023-04-03T13:39:02;18.80;25.10
7700;DHT22;3892;47.794;19.126;2023-04-03T13:41:31;18.70;24.60
7700;DHT22;3892;47.794;19.126;2023-04-03T13:44:14;18.60;24.50
7700;DHT22;3892;47.794;19.126;2023-04-03T13:46:43;18.50;24.70
7700;DHT22;3892;47.794;19.126;2023-04-03T13:49:21;18.50;25.10
7700;DHT22;3892;47.794;19.126;2023-04-03T13:51:49;18.50;25.50
7700;DHT22;3892;47.794;19.126;2023-04-03T13:54:21;18.50;25.10
7700;DHT22;3892;47.794;19.126;2023-04-03T13:56:53;18.50;24.80
7700;DHT22;3892;47.794;19.126;2023-04-03T13:59:23;18.50;25.40
7700;DHT22;3892;47.794;19.126;2023-04-03T14:01:54;18.40;24.90
7700;DHT22;3892;47.794;19.126;2023-04-03T14:04:23;18.50;25.50
7700;DHT22;3892;47.794;19.126;2023-04-03T14:06:51;18.50;25.40
7700;DHT22;3892;47.794;19.126;2023-04-03T14:09:20;18.40;25.40
7700;DHT22;3892;47.794;19.126;2023-04-03T14:11:50;18.40;25.10
7700;DHT22;3892;47.794;19.126;2023-04-03T14:14:21;18.40;24.90
7700;DHT22;3892;47.794;19.126;2023-04-03T14:16:53;18.40;25.20
7700;DHT22;3892;47.794;19.126;2023-04-03T14:19:23;18.30;25.30
7700;DHT22;3892;47.794;19.126;2023-04-03T14:21:50;18.30;25.30
7700;DHT22;3892;47.794;19.126;2023-04-03T14:24:18;18.40;25.60
7700;DHT22;3892;47.794;19.126;2023-04-03T14:26:46;18.40;25.50
7700;DHT22;3892;47.794;19.126;2023-04-03T14:29:13;18.30;25.40
7700;DHT22;3892;47.794;19.126;2023-04-03T14:31:41;18.20;25.70
7700;DHT22;3892;47.794;19.126;2023-04-03T14:34:11;18.20;25.70
7700;DHT22;3892;47.794;19.126;2023-04-03T14:36:39;18.10;25.60
7700;DHT22;3892;47.794;19.126;2023-04-03T14:39:10;18.10;25.90
7700;DHT22;3892;47.794;19.126;2023-04-03T14:41:38;18.10;25.70
7700;DHT22;3892;47.794;19.126;2023-04-03T14:44:05;18.10;26.00
7700;DHT22;3892;47.794;19.126;2023-04-03T14:46:35;18.20;26.40
7700;DHT22;3892;47.794;19.126;2023-04-03T14:49:03;18.20;26.10
7700;DHT22;3892;47.794;19.126;2023-04-03T14:51:34;18.20;28.10
7700;DHT22;3892;47.794;19.126;2023-04-03T14:54:03;18.20;26.20
7700;DHT22;3892;47.794;19.126;2023-04-03T14:56:32;18.30;25.70
7700;DHT22;3892;47.794;19.126;2023-04-03T14:59:00;18.20;25.00
7700;DHT22;3892;47.794;19.126;2023-04-03T15:01:28;18.10;25.40
7700;DHT22;3892;47.794;19.126;2023-04-03T15:03:55;18.00;25.20
7700;DHT22;3892;47.794;19.126;2023-04-03T15:06:22;17.90;25.70
7700;DHT22;3892;47.794;19.126;2023-04-03T15:08:50;18.00;25.60
7700;DHT22;3892;47.794;19.126;2023-04-03T15:11:17;18.00;25.40
7700;DHT22;3892;47.794;19.126;2023-04-03T15:13:44;17.90;25.50
7700;DHT22;3892;47.794;19.126;2023-04-03T15:16:15;17.90;25.60
7700;DHT22;3892;47.794;19.126;2023-04-03T15:18:43;17.80;26.00
7700;DHT22;3892;47.794;19.126;2023-04-03T15:21:10;17.80;27.30
7700;DHT22;3892;47.794;19.126;2023-04-03T15:23:37;17.80;28.80
7700;DHT22;3892;47.794;19.126;2023-04-03T15:26:06;17.70;26.40
7700;DHT22;3892;47.794;19.126;2023-04-03T15:28:35;17.60;26.90
7700;DHT22;3892;47.794;19.126;2023-04-03T15:31:03;17.60;25.80
7700;DHT22;3892;47.794;19.126;2023-04-03T15:33:30;17.70;26.50
7700;DHT22;3892;47.794;19.126;2023-04-03T15:35:57;17.70;25.40
7700;DHT22;3892;47.794;19.126;2023-04-03T15:38:24;17.60;25.10
7700;DHT22;3892;47.794;19.126;2023-04-03T15:40:51;17.60;24.60
7700;DHT22;3892;47.794;19.126;2023-04-03T15:43:20;17.40;24.30
7700;DHT22;3892;47.794;19.126;2023-04-03T15:45:48;17.20;24.50
7700;DHT22;3892;47.794;19.126;2023-04-03T15:48:17;17.10;24.30
7700;DHT22;3892;47.794;19.126;2023-04-03T15:50:44;17.00;24.30
7700;DHT22;3892;47.794;19.126;2023-04-03T15:53:11;16.90;24.50
7700;DHT22;3892;47.794;19.126;2023-04-03T15:55:38;16.70;24.40
7700;DHT22;3892;47.794;19.126;2023-04-03T15:58:07;16.70;24.70
7700;DHT22;3892;47.794;19.126;2023-04-03T16:00:35;16.70;24.90
7700;DHT22;3892;47.794;19.126;2023-04-03T16:03:05;16.70;24.80
7700;DHT22;3892;47.794;19.126;2023-04-03T16:05:35;16.50;24.30
7700;DHT22;3892;47.794;19.126;2023-04-03T16:08:03;16.40;24.30
7700;DHT22;3892;47.794;19.126;2023-04-03T16:10:33;16.30;25.20
7700;DHT22;3892;47.794;19.126;2023-04-03T16:13:00;16.30;25.00
7700;DHT22;3892;47.794;19.126;2023-04-03T16:15:27;16.20;24.80
7700;DHT22;3892;47.794;19.126;2023-04-03T16:17:57;16.00;24.40
7700;DHT22;3892;47.794;19.126;2023-04-03T16:20:25;15.90;24.70
7700;DHT22;3892;47.794;19.126;2023-04-03T16:22:53;15.90;24.70
7700;DHT22;3892;47.794;19.126;2023-04-03T16:25:20;15.70;24.60
7700;DHT22;3892;47.794;19.126;2023-04-03T16:27:47;15.80;24.90
7700;DHT22;3892;47.794;19.126;2023-04-03T16:30:14;15.80;25.00
7700;DHT22;3892;47.794;19.126;2023-04-03T16:32:41;15.90;25.20
7700;DHT22;3892;47.794;19.126;2023-04-03T16:35:10;15.80;25.00
7700;DHT22;3892;47.794;19.126;2023-04-03T16:37:38;15.60;24.40
7700;DHT22;3892;47.794;19.126;2023-04-03T16:40:07;15.50;24.30
7700;DHT22;3892;47.794;19.126;2023-04-03T16:42:34;15.40;24.40
7700;DHT22;3892;47.794;19.126;2023-04-03T16:45:02;15.30;24.40
7700;DHT22;3892;47.794;19.126;2023-04-03T16:47:29;15.30;24.60
7700;DHT22;3892;47.794;19.126;2023-04-03T16:49:56;15.40;24.70
7700;DHT22;3892;47.794;19.126;2023-04-03T16:52:25;15.40;24.40
7700;DHT22;3892;47.794;19.126;2023-04-03T16:54:52;15.40;24.80
7700;DHT22;3892;47.794;19.126;2023-04-03T16:57:21;15.40;24.80
7700;DHT22;3892;47.794;19.126;2023-04-03T16:59:51;15.50;24.90
7700;DHT22;3892;47.794;19.126;2023-04-03T17:02:19;15.50;25.00
7700;DHT22;3892;47.794;19.126;2023-04-03T17:04:46;15.40;24.60
7700;DHT22;3892;47.794;19.126;2023-04-03T17:07:13;15.30;24.40
7700;DHT22;3892;47.794;19.126;2023-04-03T17:09:42;15.30;24.40
7700;DHT22;3892;47.794;19.126;2023-04-03T17:12:09;15.40;24.70
7700;DHT22;3892;47.794;19.126;2023-04-03T17:14:37;15.40;24.60
7700;DHT22;3892;47.794;19.126;2023-04-03T17:17:04;15.40;24.70
7700;DHT22;3892;47.794;19.126;2023-04-03T17:19:32;15.20;24.40
7700;DHT22;3892;47.794;19.126;2023-04-03T17:22:01;15.20;24.30
7700;DHT22;3892;47.794;19.126;2023-04-03T17:24:28;15.10;24.20
7700;DHT22;3892;47.794;19.126;2023-04-03T17:26:57;15.00;24.00
7700;DHT22;3892;47.794;19.126;2023-04-03T17:29:25;15.00;24.20
7700;DHT22;3892;47.794;19.126;2023-04-03T17:31:52;14.90;24.10
7700;DHT22;3892;47.794;19.126;2023-04-03T17:34:20;14.90;24.30
7700;DHT22;3892;47.794;19.126;2023-04-03T17:36:49;14.80;24.10
7700;DHT22;3892;47.794;19.126;2023-04-03T17:39:16;14.80;24.20
7700;DHT22;3892;47.794;19.126;2023-04-03T17:41:43;14.90;24.10
7700;DHT22;3892;47.794;19.126;2023-04-03T17:44:12;15.00;24.20
7700;DHT22;3892;47.794;19.126;2023-04-03T17:46:40;15.10;24.40
7700;DHT22;3892;47.794;19.126;2023-04-03T17:49:08;15.10;24.40
7700;DHT22;3892;47.794;19.126;2023-04-03T17:51:40;15.10;24.40
7700;DHT22;3892;47.794;19.126;2023-04-03T17:54:08;15.20;24.10
7700;DHT22;3892;47.794;19.126;2023-04-03T17:56:36;15.10;24.10
7700;DHT22;3892;47.794;19.126;2023-04-03T17:59:03;15.00;23.70
7700;DHT22;3892;47.794;19.126;2023-04-03T18:01:36;14.70;23.50
7700;DHT22;3892;47.794;19.126;2023-04-03T18:04:05;14.60;24.10
7700;DHT22;3892;47.794;19.126;2023-04-03T18:06:37;14.60;24.40
7700;DHT22;3892;47.794;19.126;2023-04-03T18:09:09;14.60;24.50
7700;DHT22;3892;47.794;19.126;2023-04-03T18:11:37;14.70;24.50
7700;DHT22;3892;47.794;19.126;2023-04-03T18:14:06;14.80;24.60
7700;DHT22;3892;47.794;19.126;2023-04-03T18:16:36;14.80;24.30
7700;DHT22;3892;47.794;19.126;2023-04-03T18:19:04;14.70;24.30
7700;DHT22;3892;47.794;19.126;2023-04-03T18:21:34;14.80;24.00
7700;DHT22;3892;47.794;19.126;2023-04-03T18:24:02;14.80;24.10
7700;DHT22;3892;47.794;19.126;2023-04-03T18:26:32;14.70;23.90
7700;DHT22;3892;47.794;19.126;2023-04-03T18:29:02;14.70;23.80
7700;DHT22;3892;47.794;19.126;2023-04-03T18:31:33;14.60;23.50
7700;DHT22;3892;47.794;19.126;2023-04-03T18:34:05;14.60;23.90
7700;DHT22;3892;47.794;19.126;2023-04-03T18:36:33;14.60;23.30
7700;DHT22;3892;47.794;19.126;2023-04-03T18:39:01;14.60;23.40
7700;DHT22;3892;47.794;19.126;2023-04-03T18:41:36;14.50;23.10
7700;DHT22;3892;47.794;19.126;2023-04-03T18:44:07;14.60;23.10
7700;DHT22;3892;47.794;19.126;2023-04-03T18:46:39;14.50;23.20
7700;DHT22;3892;47.794;19.126;2023-04-03T18:49:11;14.50;22.70
7700;DHT22;3892;47.794;19.126;2023-04-03T18:51:40;14.40;22.20
7700;DHT22;3892;47.794;19.126;2023-04-03T18:54:09;14.40;22.40
7700;DHT22;3892;47.794;19.126;2023-04-03T18:56:38;14.40;22.50
7700;DHT22;3892;47.794;19.126;2023-04-03T18:59:07;14.30;22.50
7700;DHT22;3892;47.794;19.126;2023-04-03T19:01:36;14.30;22.70
7700;DHT22;3892;47.794;19.126;2023-04-03T19:04:05;14.30;22.30
7700;DHT22;3892;47.794;19.126;2023-04-03T19:06:36;14.40;22.00
7700;DHT22;3892;47.794;19.126;2023-04-03T19:09:05;14.30;21.70
7700;DHT22;3892;47.794;19.126;2023-04-03T19:11:34;14.30;21.70
7700;DHT22;3892;47.794;19.126;2023-04-03T19:14:06;14.20;21.40
7700;DHT22;3892;47.794;19.126;2023-04-03T19:16:36;14.20;21.50
7700;DHT22;3892;47.794;19.126;2023-04-03T19:19:05;14.10;21.50
7700;DHT22;3892;47.794;19.126;2023-04-03T19:21:35;14.10;21.90
7700;DHT22;3892;47.794;19.126;2023-04-03T19:24:07;14.00;21.90
7700;DHT22;3892;47.794;19.126;2023-04-03T19:26:35;13.90;21.50
7700;DHT22;3892;47.794;19.126;2023-04-03T19:29:04;14.00;21.90
7700;DHT22;3892;47.794;19.126;2023-04-03T19:31:34;14.00;21.40
7700;DHT22;3892;47.794;19.126;2023-04-03T19:34:04;14.00;21.30
7700;DHT22;3892;47.794;19.126;2023-04-03T19:36:35;14.10;21.40
7700;DHT22;3892;47.794;19.126;2023-04-03T19:39:04;14.10;22.30
7700;DHT22;3892;47.794;19.126;2023-04-03T19:41:34;14.10;21.40
7700;DHT22;3892;47.794;19.126;2023-04-03T19:44:04;14.20;21.80
7700;DHT22;3892;47.794;19.126;2023-04-03T19:46:36;14.20;22.20
7700;DHT22;3892;47.794;19.126;2023-04-03T19:49:08;14.30;21.70
7700;DHT22;3892;47.794;19.126;2023-04-03T19:51:37;14.30;21.50
7700;DHT22;3892;47.794;19.126;2023-04-03T19:54:05;14.40;21.40
7700;DHT22;3892;47.794;19.126;2023-04-03T19:56:33;14.30;21.30
7700;DHT22;3892;47.794;19.126;2023-04-03T19:59:01;14.30;21.30
7700;DHT22;3892;47.794;19.126;2023-04-03T20:01:29;14.20;21.10
7700;DHT22;3892;47.794;19.126;2023-04-03T20:03:59;14.00;20.70
7700;DHT22;3892;47.794;19.126;2023-04-03T20:06:27;14.00;21.20
7700;DHT22;3892;47.794;19.126;2023-04-03T20:08:57;14.00;20.90
7700;DHT22;3892;47.794;19.126;2023-04-03T20:11:25;14.10;21.00
7700;DHT22;3892;47.794;19.126;2023-04-03T20:13:54;14.00;21.10
7700;DHT22;3892;47.794;19.126;2023-04-03T20:16:22;14.00;21.30
7700;DHT22;3892;47.794;19.126;2023-04-03T20:18:51;14.00;20.90
7700;DHT22;3892;47.794;19.126;2023-04-03T20:21:20;14.00;21.10
7700;DHT22;3892;47.794;19.126;2023-04-03T20:23:49;14.00;21.10
7700;DHT22;3892;47.794;19.126;2023-04-03T20:26:24;14.00;20.90
7700;DHT22;3892;47.794;19.126;2023-04-03T20:28:53;13.90;20.90
7700;DHT22;3892;47.794;19.126;2023-04-03T20:31:21;14.00;20.80
7700;DHT22;3892;47.794;19.126;2023-04-03T20:33:49;13.90;20.80
7700;DHT22;3892;47.794;19.126;2023-04-03T20:36:17;13.90;21.20
7700;DHT22;3892;47.794;19.126;2023-04-03T20:38:45;13.80;20.80
7700;DHT22;3892;47.794;19.126;2023-04-03T20:41:14;13.70;20.90
7700;DHT22;3892;47.794;19.126;2023-04-03T20:43:42;13.60;21.20
7700;DHT22;3892;47.794;19.126;2023-04-03T20:46:10;13.50;21.10
7700;DHT22;3892;47.794;19.126;2023-04-03T20:48:39;13.60;21.30
7700;DHT22;3892;47.794;19.126;2023-04-03T20:51:09;13.60;21.50
7700;DHT22;3892;47.794;19.126;2023-04-03T20:53:37;13.60;21.40
7700;DHT22;3892;47.794;19.126;2023-04-03T20:56:04;13.70;21.30
7700;DHT22;3892;47.794;19.126;2023-04-03T20:58:35;13.70;21.00
7700;DHT22;3892;47.794;19.126;2023-04-03T21:01:11;13.50;20.80
7700;DHT22;3892;47.794;19.126;2023-04-03T21:03:39;13.50;21.00
7700;DHT22;3892;47.794;19.126;2023-04-03T21:21:02;13.20;21.30
7700;DHT22;3892;47.794;19.126;2023-04-03T21:23:30;13.30;21.40
7700;DHT22;3892;47.794;19.126;2023-04-03T21:25:59;13.30;21.30
7700;DHT22;3892;47.794;19.126;2023-04-03T21:28:26;13.30;22.00
7700;DHT22;3892;47.794;19.126;2023-04-03T21:30:53;13.30;21.60